KBCE

Bryce Canyon Airport

Bryce Canyon, Utah, USA
METAR KBCE 210653Z AUTO 27009KT 10SM CLR 03/02 A3008 RMK AO2 SLP095 T00330017 401940017
Observed Flight Rules
May-21 @ 06:53 UTC (7 minutes ago) Visual Flight Rules
Wind Visibility Clouds
270° at 9 knots 10 miles
  • Clear skies
Temperatures Readings
Current 3°C / 37°F
Dewpoint 2°C / 36°F
Humidity 93%
Altimeter 30.08" Hg
Pressure 1009.5 hPa
Elevation 2312
METAR KBCE 210653Z AUTO 27009KT 10SM CLR 03/02 A3008 RMK AO2 SLP095 T00330017 401940017
Observed Flight Rules
May-21 @ 06:53 UTC
(7 minutes ago)
VFR
Wind Visibility
270° at 9 knots 10 miles
Clouds
  • Clear skies
Temperature Dewpoint
3°C / 37°F 2°C / 36°F
Humidity Altimeter Pressure
93% 30.08" Hg 1009.5 hPa